createdAt,value
2019-01-15T00:00:43.125Z,4.60
2019-01-15T00:02:44.942Z,4.60
2019-01-15T00:04:47.019Z,4.60
2019-01-15T00:06:48.859Z,4.60
2019-01-15T00:08:50.580Z,4.50
2019-01-15T00:10:52.345Z,4.50
2019-01-15T00:12:54.065Z,4.60
2019-01-15T00:14:55.804Z,4.50
2019-01-15T00:16:57.687Z,4.60
2019-01-15T00:18:59.407Z,4.60
2019-01-15T00:21:01.136Z,4.60
2019-01-15T00:23:03.388Z,4.50
2019-01-15T00:25:05.332Z,4.50
2019-01-15T00:27:07.054Z,4.50
2019-01-15T00:29:09.034Z,4.50
2019-01-15T00:31:10.752Z,4.50
2019-01-15T00:33:12.487Z,4.40
2019-01-15T00:35:14.321Z,4.50
2019-01-15T00:37:16.039Z,4.50
2019-01-15T00:39:17.772Z,4.50
2019-01-15T00:41:19.506Z,4.50
2019-01-15T00:43:21.226Z,4.50
2019-01-15T00:45:22.959Z,4.60
2019-01-15T00:47:24.670Z,4.50
2019-01-15T00:49:26.410Z,4.40
2019-01-15T00:51:28.173Z,4.40
2019-01-15T00:53:30.013Z,4.30
2019-01-15T00:55:31.719Z,4.30
2019-01-15T00:57:33.579Z,4.30
2019-01-15T00:59:35.551Z,4.30
2019-01-15T01:01:37.527Z,4.30
2019-01-15T01:03:39.263Z,4.30
2019-01-15T01:05:41.026Z,4.20
2019-01-15T01:07:42.958Z,4.20
2019-01-15T01:09:44.790Z,4.10
2019-01-15T01:11:46.639Z,4.10
2019-01-15T01:13:48.375Z,4.10
2019-01-15T01:15:50.199Z,4.10
2019-01-15T01:17:52.019Z,4.10
2019-01-15T01:19:53.851Z,4.20
2019-01-15T01:21:55.567Z,4.10
2019-01-15T01:23:57.578Z,4.10
2019-01-15T01:25:59.390Z,4.10
2019-01-15T01:28:01.219Z,4.10
2019-01-15T01:30:05.980Z,4.00
2019-01-15T01:32:07.694Z,4.10
2019-01-15T01:34:09.522Z,4.10
2019-01-15T01:36:11.292Z,4.00
2019-01-15T01:38:13.018Z,4.00
2019-01-15T01:40:17.237Z,4.00
2019-01-15T01:42:19.072Z,4.00
2019-01-15T01:44:20.794Z,4.00
2019-01-15T01:46:22.514Z,4.00
2019-01-15T01:48:24.235Z,4.00
2019-01-15T01:50:27.476Z,4.10
2019-01-15T01:52:29.666Z,4.10
2019-01-15T01:54:31.393Z,4.10
2019-01-15T01:56:33.112Z,4.10
2019-01-15T01:58:34.948Z,4.10
2019-01-15T02:00:36.778Z,4.10
2019-01-15T02:02:38.591Z,4.10
2019-01-15T02:04:40.633Z,4.10
2019-01-15T02:06:42.454Z,4.10
2019-01-15T02:08:44.177Z,4.10
2019-01-15T02:10:45.894Z,4.20
2019-01-15T02:12:48.590Z,4.20
2019-01-15T02:14:50.302Z,4.20
2019-01-15T02:16:52.010Z,4.20
2019-01-15T02:18:53.794Z,4.20
2019-01-15T02:20:55.498Z,4.20
2019-01-15T02:22:57.198Z,4.20
2019-01-15T02:24:58.915Z,4.20
2019-01-15T02:27:02.535Z,4.10
2019-01-15T02:29:04.500Z,4.10
2019-01-15T02:31:06.345Z,4.10
2019-01-15T02:33:08.107Z,4.10
2019-01-15T02:35:10.022Z,4.10
2019-01-15T02:37:11.768Z,4.00
2019-01-15T02:39:13.491Z,4.00
2019-01-15T02:41:15.361Z,4.00
2019-01-15T02:43:17.056Z,4.00
2019-01-15T02:45:20.171Z,4.00
2019-01-15T02:47:21.898Z,4.00
2019-01-15T02:49:23.614Z,4.00
2019-01-15T02:51:25.350Z,4.10
2019-01-15T02:53:27.063Z,4.10
2019-01-15T02:55:28.787Z,4.10
2019-01-15T02:57:30.535Z,4.10
2019-01-15T02:59:32.274Z,4.10
2019-01-15T03:01:34.060Z,4.10
2019-01-15T03:03:35.931Z,4.10
2019-01-15T03:05:37.743Z,4.10
2019-01-15T03:07:39.654Z,4.20
2019-01-15T03:09:41.380Z,4.20
2019-01-15T03:11:43.188Z,4.20
2019-01-15T03:13:44.895Z,4.20
2019-01-15T03:15:46.878Z,4.30
2019-01-15T03:17:48.822Z,4.20
2019-01-15T03:19:50.540Z,4.20
2019-01-15T03:21:52.284Z,4.20
2019-01-15T03:23:53.994Z,4.30
2019-01-15T03:25:55.710Z,4.30
2019-01-15T03:27:57.533Z,4.30
2019-01-15T03:29:59.364Z,4.30
2019-01-15T03:32:01.180Z,4.30
2019-01-15T03:34:03.190Z,4.30
2019-01-15T03:36:05.020Z,4.30
2019-01-15T03:38:06.830Z,4.30
2019-01-15T03:40:12.431Z,4.30
2019-01-15T03:42:14.318Z,4.30
2019-01-15T03:44:16.039Z,4.30
2019-01-15T03:46:17.830Z,4.30
2019-01-15T03:48:19.562Z,4.30
2019-01-15T03:50:21.393Z,4.30
2019-01-15T03:52:23.097Z,4.30
2019-01-15T03:54:24.984Z,4.30
2019-01-15T03:56:26.691Z,4.30
2019-01-15T03:58:28.399Z,4.30
2019-01-15T04:00:30.350Z,4.30
2019-01-15T04:02:32.261Z,4.30
2019-01-15T04:04:34.779Z,4.30
2019-01-15T04:06:36.523Z,4.30
2019-01-15T04:08:38.222Z,4.30
2019-01-15T04:10:39.926Z,4.20
2019-01-15T04:12:41.690Z,4.20
2019-01-15T04:14:43.401Z,4.20
2019-01-15T04:16:45.157Z,4.10
2019-01-15T04:18:46.962Z,4.10
2019-01-15T04:20:49.588Z,4.10
2019-01-15T04:22:51.446Z,4.20
2019-01-15T04:24:53.174Z,4.10
2019-01-15T04:26:54.894Z,4.10
2019-01-15T04:28:57.066Z,4.10
2019-01-15T04:30:58.794Z,4.10
2019-01-15T04:33:00.538Z,4.10
2019-01-15T04:35:03.337Z,4.10
2019-01-15T04:37:05.046Z,4.00
2019-01-15T04:39:07.210Z,4.00
2019-01-15T04:41:08.950Z,4.00
2019-01-15T04:43:10.664Z,4.00
2019-01-15T04:45:13.918Z,4.00
2019-01-15T04:47:15.659Z,3.90
2019-01-15T04:49:17.369Z,3.90
2019-01-15T04:51:19.070Z,3.90
2019-01-15T04:53:20.866Z,3.90
2019-01-15T04:55:22.687Z,3.80
2019-01-15T04:57:24.506Z,3.80
2019-01-15T04:59:26.683Z,3.90
2019-01-15T05:01:28.401Z,3.90
2019-01-15T05:03:30.216Z,3.90
2019-01-15T05:05:32.051Z,3.80
2019-01-15T05:07:36.998Z,3.70
2019-01-15T05:09:38.964Z,3.70
2019-01-15T05:11:40.799Z,3.70
2019-01-15T05:13:42.522Z,3.70
2019-01-15T05:15:44.252Z,3.70
2019-01-15T05:17:46.325Z,3.80
2019-01-15T05:19:48.042Z,3.80
2019-01-15T05:21:49.771Z,3.80
2019-01-15T05:23:51.691Z,3.80
2019-01-15T05:25:53.414Z,3.80
2019-01-15T05:27:55.244Z,3.70
2019-01-15T05:29:57.019Z,3.70
2019-01-15T05:31:58.746Z,3.70
2019-01-15T05:34:00.489Z,3.70
2019-01-15T05:36:02.834Z,3.70
2019-01-15T05:38:04.668Z,3.70
2019-01-15T05:40:07.383Z,3.70
2019-01-15T05:42:09.322Z,3.70
2019-01-15T05:44:11.337Z,3.70
2019-01-15T05:46:13.051Z,3.70
2019-01-15T05:48:24.482Z,3.80
2019-01-15T05:50:51.687Z,3.70
2019-01-15T05:52:53.406Z,3.70
2019-01-15T05:54:55.131Z,3.70
2019-01-15T05:56:57.347Z,3.70
2019-01-15T05:58:59.067Z,3.70
2019-01-15T06:01:00.992Z,3.70
2019-01-15T06:03:03.519Z,3.60
2019-01-15T06:05:07.215Z,3.60
2019-01-15T06:07:08.982Z,3.60
2019-01-15T06:09:10.897Z,3.60
2019-01-15T06:11:12.605Z,3.60
2019-01-15T06:13:14.426Z,3.60
2019-01-15T06:15:16.959Z,3.60
2019-01-15T06:17:19.123Z,3.60
2019-01-15T06:19:20.943Z,3.60
2019-01-15T06:21:22.750Z,3.60
2019-01-15T06:23:24.459Z,3.60
2019-01-15T06:25:26.215Z,3.60
2019-01-15T06:27:28.032Z,3.60
2019-01-15T06:29:29.717Z,3.60
2019-01-15T06:31:31.471Z,3.70
2019-01-15T06:33:33.469Z,3.70
2019-01-15T06:35:35.231Z,3.80
2019-01-15T06:37:37.076Z,3.80
2019-01-15T06:39:38.879Z,3.80
2019-01-15T06:41:40.596Z,3.80
2019-01-15T06:43:42.324Z,3.80
2019-01-15T06:45:44.138Z,3.80
2019-01-15T06:47:46.249Z,3.80
2019-01-15T06:49:48.075Z,3.80
2019-01-15T06:51:49.784Z,3.80
2019-01-15T06:53:51.481Z,3.90
2019-01-15T06:55:53.202Z,3.90
2019-01-15T06:57:55.020Z,3.90
2019-01-15T06:59:57.007Z,4.00
2019-01-15T07:01:58.860Z,4.00
2019-01-15T07:04:00.752Z,4.00
2019-01-15T07:06:02.855Z,4.10
2019-01-15T07:08:04.586Z,4.10
2019-01-15T07:10:09.290Z,4.10
2019-01-15T07:12:11.135Z,4.20
2019-01-15T07:14:12.867Z,4.20
2019-01-15T07:16:15.004Z,4.20
2019-01-15T07:18:16.802Z,4.30
2019-01-15T07:20:18.726Z,4.30
2019-01-15T07:22:20.435Z,4.30
2019-01-15T07:24:22.155Z,4.30
2019-01-15T07:26:23.987Z,4.30
2019-01-15T07:28:25.710Z,4.30
2019-01-15T07:30:36.226Z,4.40
2019-01-15T07:32:38.194Z,4.40
2019-01-15T07:34:39.915Z,4.40
2019-01-15T07:36:41.734Z,4.50
2019-01-15T07:38:43.759Z,4.50
2019-01-15T07:41:55.391Z,4.50
2019-01-15T07:44:04.132Z,4.60
2019-01-15T07:46:01.072Z,4.60
2019-01-15T07:48:03.020Z,4.60
2019-01-15T07:50:07.687Z,4.60
2019-01-15T07:52:09.667Z,4.60
2019-01-15T07:54:11.692Z,4.60
2019-01-15T07:56:13.465Z,4.60
2019-01-15T07:58:15.387Z,4.60
2019-01-15T08:00:18.515Z,4.60
2019-01-15T08:02:20.467Z,4.60
2019-01-15T08:04:22.171Z,4.60
2019-01-15T08:06:24.397Z,4.70
2019-01-15T08:08:26.391Z,4.70
2019-01-15T08:10:28.200Z,4.70
2019-01-15T08:12:30.125Z,4.70
2019-01-15T08:14:31.859Z,4.80
2019-01-15T08:16:33.800Z,4.90
2019-01-15T08:18:35.555Z,4.90
2019-01-15T08:20:37.389Z,4.90
2019-01-15T08:22:39.377Z,4.90
2019-01-15T08:24:41.121Z,5.00
2019-01-15T08:26:42.958Z,5.00
2019-01-15T08:28:44.765Z,5.00
2019-01-15T08:30:46.544Z,4.90
2019-01-15T08:32:48.317Z,4.90
2019-01-15T08:34:50.051Z,4.90
2019-01-15T08:36:52.247Z,5.00
2019-01-15T08:38:54.072Z,5.00
2019-01-15T08:40:55.803Z,5.00
2019-01-15T08:42:57.829Z,5.10
2019-01-15T08:44:59.687Z,5.10
2019-01-15T08:47:04.327Z,5.10
2019-01-15T08:49:06.289Z,5.20
2019-01-15T08:51:08.795Z,5.30
2019-01-15T08:53:11.863Z,5.30
2019-01-15T08:55:13.804Z,5.30
2019-01-15T08:57:15.662Z,5.30
2019-01-15T08:59:17.435Z,5.40
2019-01-15T09:01:19.203Z,5.40
2019-01-15T09:03:21.280Z,5.40
2019-01-15T09:05:23.011Z,5.40
2019-01-15T09:07:24.831Z,5.40
2019-01-15T09:09:26.689Z,5.50
2019-01-15T09:11:28.595Z,5.50
2019-01-15T09:13:30.345Z,5.50
2019-01-15T09:15:32.308Z,5.50
2019-01-15T09:17:34.146Z,5.50
2019-01-15T09:19:36.492Z,5.40
2019-01-15T09:21:38.277Z,5.40
2019-01-15T09:23:40.362Z,5.40
2019-01-15T09:25:42.124Z,5.40
2019-01-15T09:27:44.071Z,5.40
2019-01-15T09:29:46.019Z,5.40
2019-01-15T09:31:47.782Z,5.40
2019-01-15T09:33:49.640Z,5.40
2019-01-15T09:35:51.405Z,5.40
2019-01-15T09:37:53.715Z,5.40
2019-01-15T09:39:55.676Z,5.40
2019-01-15T09:41:57.603Z,5.40
2019-01-15T09:43:59.399Z,5.50
2019-01-15T09:46:01.454Z,5.50
2019-01-15T09:48:05.229Z,5.50
2019-01-15T09:50:08.867Z,5.50
2019-01-15T09:52:13.159Z,5.50
2019-01-15T09:54:16.082Z,5.60
2019-01-15T09:56:17.817Z,5.60
2019-01-15T09:58:19.569Z,5.60
2019-01-15T10:00:21.598Z,5.60
2019-01-15T10:02:24.076Z,5.70
2019-01-15T10:04:26.391Z,5.60
2019-01-15T10:06:28.224Z,5.60
2019-01-15T10:08:30.280Z,5.70
2019-01-15T10:10:32.471Z,5.70
2019-01-15T10:12:34.214Z,5.70
2019-01-15T10:14:41.253Z,5.70
2019-01-15T10:16:39.997Z,5.70
2019-01-15T10:18:41.763Z,5.70
2019-01-15T10:20:43.639Z,5.70
2019-01-15T10:22:46.208Z,5.70
2019-01-15T10:24:48.559Z,5.70
2019-01-15T10:26:50.952Z,5.70
2019-01-15T10:28:52.793Z,5.70
2019-01-15T10:31:28.799Z,5.70
2019-01-15T10:33:39.045Z,5.70
2019-01-15T10:36:00.307Z,5.70
2019-01-15T10:38:02.129Z,5.70
2019-01-15T10:40:05.859Z,5.70
2019-01-15T10:42:07.827Z,5.70
2019-01-15T10:44:09.673Z,5.70
2019-01-15T10:46:11.808Z,5.70
2019-01-15T10:48:13.759Z,5.70
2019-01-15T10:50:15.720Z,5.70
2019-01-15T10:52:17.426Z,5.70
2019-01-15T10:54:19.657Z,5.70
2019-01-15T10:56:21.506Z,5.80
2019-01-15T10:58:23.572Z,5.80
2019-01-15T11:00:25.703Z,5.80
2019-01-15T11:02:27.594Z,5.80
2019-01-15T11:04:29.351Z,5.90
2019-01-15T11:06:31.251Z,5.80
2019-01-15T11:08:32.989Z,5.90
2019-01-15T11:10:34.844Z,5.90
2019-01-15T11:12:36.783Z,5.90
2019-01-15T11:14:38.930Z,5.90
2019-01-15T11:16:40.667Z,6.00
2019-01-15T11:18:42.523Z,6.00
2019-01-15T11:20:44.349Z,6.00
2019-01-15T11:22:46.221Z,6.00
2019-01-15T11:24:47.923Z,6.00
2019-01-15T11:26:49.650Z,6.10
2019-01-15T11:28:51.574Z,6.00
2019-01-15T11:30:53.277Z,6.00
2019-01-15T11:32:54.995Z,6.10
2019-01-15T11:34:56.896Z,6.10
2019-01-15T11:36:58.634Z,6.10
2019-01-15T11:39:00.648Z,6.10
2019-01-15T11:41:02.610Z,6.10
2019-01-15T11:43:04.357Z,6.10
2019-01-15T11:45:07.453Z,6.10
2019-01-15T11:47:09.567Z,6.10
2019-01-15T11:49:11.402Z,6.20
2019-01-15T11:51:13.129Z,6.20
2019-01-15T11:53:14.985Z,6.20
2019-01-15T11:55:16.878Z,6.20
2019-01-15T11:57:18.857Z,6.20
2019-01-15T11:59:20.832Z,6.20
2019-01-15T12:01:29.219Z,6.20
2019-01-15T12:03:41.712Z,6.20
2019-01-15T12:05:54.730Z,6.30
2019-01-15T12:08:14.675Z,6.30
2019-01-15T12:10:34.806Z,6.20
2019-01-15T12:12:55.089Z,6.30
2019-01-15T12:15:15.462Z,6.20
2019-01-15T12:17:43.504Z,6.30
2019-01-15T12:20:03.546Z,6.30
2019-01-15T12:22:20.380Z,6.30
2019-01-15T12:24:36.292Z,6.30
2019-01-15T12:26:56.623Z,6.30
2019-01-15T12:29:21.048Z,6.40
2019-01-15T12:31:33.910Z,6.30
2019-01-15T12:34:10.412Z,6.40
2019-01-15T12:36:27.303Z,6.40
2019-01-15T12:38:51.267Z,6.40
2019-01-15T12:41:12.771Z,6.40
2019-01-15T12:43:33.045Z,6.50
2019-01-15T12:45:53.268Z,6.50
2019-01-15T12:48:13.550Z,6.40
2019-01-15T12:50:33.814Z,6.50
2019-01-15T12:52:55.412Z,6.50
2019-01-15T12:55:25.915Z,6.50
2019-01-15T12:58:03.011Z,6.40
2019-01-15T13:00:27.129Z,6.50
2019-01-15T13:02:44.611Z,6.50
2019-01-15T13:05:11.168Z,6.50
2019-01-15T13:07:38.519Z,6.50
2019-01-15T13:09:58.142Z,6.50
2019-01-15T13:12:16.867Z,6.50
2019-01-15T13:14:46.930Z,6.50
2019-01-15T13:17:07.047Z,6.50
2019-01-15T13:19:35.749Z,6.50
2019-01-15T13:21:48.100Z,6.60
2019-01-15T13:24:08.174Z,6.60
2019-01-15T13:26:32.459Z,6.60
2019-01-15T13:28:44.613Z,6.60
2019-01-15T13:31:04.428Z,6.60
2019-01-15T13:33:37.824Z,6.60
2019-01-15T13:35:59.270Z,6.60
2019-01-15T13:38:13.988Z,6.60
2019-01-15T13:40:25.431Z,6.60
2019-01-15T13:42:45.373Z,6.70
2019-01-15T13:45:19.763Z,6.70
2019-01-15T13:47:43.741Z,6.70
2019-01-15T13:50:03.803Z,6.70
2019-01-15T13:52:28.195Z,6.70
2019-01-15T13:54:47.826Z,6.80
2019-01-15T13:57:07.640Z,6.80
2019-01-15T13:59:41.151Z,6.80
2019-01-15T14:02:01.283Z,6.70
2019-01-15T14:04:41.265Z,6.80
2019-01-15T14:07:01.436Z,6.80
2019-01-15T14:09:30.279Z,6.80
2019-01-15T14:11:59.719Z,6.80
2019-01-15T14:14:19.500Z,6.80
2019-01-15T14:16:55.893Z,6.80
2019-01-15T14:19:15.550Z,6.80
2019-01-15T14:21:35.687Z,6.80
2019-01-15T14:23:59.945Z,6.80
2019-01-15T14:26:15.322Z,6.80
2019-01-15T14:28:39.981Z,6.80
2019-01-15T14:31:01.612Z,6.80
2019-01-15T14:33:25.787Z,6.80
2019-01-15T14:35:38.594Z,6.80
2019-01-15T14:37:58.427Z,6.80
2019-01-15T14:40:18.310Z,6.80
2019-01-15T14:42:38.503Z,6.80
2019-01-15T14:45:14.996Z,6.80
2019-01-15T14:47:31.945Z,6.80
2019-01-15T14:49:50.667Z,6.90
2019-01-15T14:52:04.249Z,6.80
2019-01-15T14:54:37.952Z,6.90
2019-01-15T14:57:08.588Z,6.80
2019-01-15T14:59:39.062Z,6.90
2019-01-15T15:02:04.982Z,6.90
2019-01-15T15:04:18.765Z,6.90
2019-01-15T15:06:40.515Z,6.90
2019-01-15T15:09:00.667Z,6.90
2019-01-15T15:11:20.794Z,6.90
2019-01-15T15:13:57.173Z,6.90
2019-01-15T15:16:17.120Z,6.90
2019-01-15T15:18:41.097Z,6.90
2019-01-15T15:21:09.698Z,6.90
2019-01-15T15:23:33.659Z,6.90
2019-01-15T15:25:42.072Z,6.90
2019-01-15T15:28:09.296Z,6.90
2019-01-15T15:30:31.585Z,6.90
2019-01-15T15:32:54.355Z,6.90
2019-01-15T15:35:14.430Z,6.90
2019-01-15T15:37:41.559Z,6.90
2019-01-15T15:40:03.612Z,6.90
2019-01-15T15:42:34.893Z,6.90
2019-01-15T15:45:11.357Z,6.90
2019-01-15T15:47:32.795Z,6.90
2019-01-15T15:49:50.521Z,6.90
2019-01-15T15:52:27.065Z,7.00
2019-01-15T15:54:54.253Z,6.90
2019-01-15T15:57:21.905Z,7.00
2019-01-15T15:59:36.127Z,6.90
2019-01-15T16:01:57.167Z,7.00
2019-01-15T16:04:11.942Z,7.00
2019-01-15T16:06:25.655Z,7.00
2019-01-15T16:08:56.122Z,7.00
2019-01-15T16:11:35.498Z,7.00
2019-01-15T16:13:46.844Z,7.00
2019-01-15T16:16:03.094Z,7.10
2019-01-15T16:18:24.318Z,7.10
2019-01-15T16:20:55.088Z,7.10
2019-01-15T16:23:17.796Z,7.10
2019-01-15T16:25:30.612Z,7.10
2019-01-15T16:28:04.009Z,7.10
2019-01-15T16:30:35.170Z,7.10
2019-01-15T16:32:55.563Z,7.10
2019-01-15T16:35:23.018Z,7.10
2019-01-15T16:37:32.040Z,7.10
2019-01-15T16:40:04.978Z,7.10
2019-01-15T16:42:25.355Z,7.10
2019-01-15T16:44:38.143Z,7.10
2019-01-15T16:47:04.999Z,7.10
2019-01-15T16:49:30.416Z,7.10
2019-01-15T16:52:07.342Z,7.10
2019-01-15T16:54:29.054Z,7.10
2019-01-15T16:57:02.311Z,7.10
2019-01-15T16:59:20.491Z,7.20
2019-01-15T17:01:51.087Z,7.10
2019-01-15T17:04:04.911Z,7.20
2019-01-15T17:06:17.319Z,7.10
2019-01-15T17:08:47.904Z,7.20
2019-01-15T17:11:04.315Z,7.20
2019-01-15T17:13:17.856Z,7.20
2019-01-15T17:15:33.232Z,7.20
2019-01-15T17:17:42.875Z,7.20
2019-01-15T17:20:10.624Z,7.20
2019-01-15T17:23:06.178Z,7.20
2019-01-15T17:25:26.414Z,7.20
2019-01-15T17:27:47.049Z,7.20
2019-01-15T17:30:07.173Z,7.20
2019-01-15T17:32:28.880Z,7.20
2019-01-15T17:34:50.604Z,7.20
2019-01-15T17:37:07.161Z,7.20
2019-01-15T17:40:07.555Z,7.20
2019-01-15T17:42:44.015Z,7.30
2019-01-15T17:45:11.524Z,7.30
2019-01-15T17:47:31.974Z,7.20
2019-01-15T17:52:22.917Z,7.20
2019-01-15T17:54:47.602Z,7.20
2019-01-15T17:57:18.302Z,7.20
2019-01-15T17:59:46.383Z,7.30
2019-01-15T18:02:06.883Z,7.20
2019-01-15T18:04:29.595Z,7.20
2019-01-15T18:06:50.199Z,7.20
2019-01-15T18:09:23.123Z,7.20
2019-01-15T18:11:37.421Z,7.30
2019-01-15T18:13:57.493Z,7.20
2019-01-15T18:16:25.931Z,7.20
2019-01-15T18:18:43.997Z,7.20
2019-01-15T18:21:27.951Z,7.20
2019-01-15T18:23:49.587Z,7.20
2019-01-15T18:26:11.022Z,7.20
2019-01-15T18:28:35.649Z,7.20
2019-01-15T18:31:09.287Z,7.30
2019-01-15T18:33:34.871Z,7.30
2019-01-15T18:35:53.848Z,7.30
2019-01-15T18:38:30.634Z,7.20
2019-01-15T18:40:52.835Z,7.20
2019-01-15T18:43:13.007Z,7.30
2019-01-15T18:45:37.029Z,7.20
2019-01-15T18:48:14.482Z,7.20
2019-01-15T18:50:34.864Z,7.20
2019-01-15T18:53:11.339Z,7.30
2019-01-15T18:55:41.655Z,7.20
2019-01-15T18:57:58.063Z,7.30
2019-01-15T19:00:18.711Z,7.30
2019-01-15T19:02:55.303Z,7.30
2019-01-15T19:05:09.177Z,7.30
2019-01-15T19:07:29.815Z,7.30
2019-01-15T19:09:57.661Z,7.30
2019-01-15T19:12:22.544Z,7.30
2019-01-15T19:17:54.167Z,7.30
2019-01-15T19:20:10.128Z,7.30
2019-01-15T19:22:25.581Z,7.30
2019-01-15T19:24:50.827Z,7.30
2019-01-15T19:27:11.337Z,7.30
2019-01-15T19:29:24.315Z,7.30
2019-01-15T19:31:51.583Z,7.30
2019-01-15T19:34:28.070Z,7.30
2019-01-15T19:36:50.236Z,7.30
2019-01-15T19:39:16.372Z,7.30
2019-01-15T19:41:37.667Z,7.30
2019-01-15T19:43:57.535Z,7.30
2019-01-15T19:46:19.287Z,7.30
2019-01-15T19:48:33.528Z,7.30
2019-01-15T19:50:54.918Z,7.40
2019-01-15T19:53:10.621Z,7.30
2019-01-15T19:55:32.174Z,7.40
2019-01-15T19:57:45.544Z,7.30
2019-01-15T19:59:58.314Z,7.30
2019-01-15T20:02:23.084Z,7.30
2019-01-15T20:04:36.103Z,7.40
2019-01-15T20:06:49.291Z,7.30
2019-01-15T20:09:06.724Z,7.30
2019-01-15T20:11:33.152Z,7.30
2019-01-15T20:13:45.666Z,7.30
2019-01-15T20:16:19.308Z,7.40
2019-01-15T20:18:40.754Z,7.30
2019-01-15T20:21:04.972Z,7.30
2019-01-15T20:23:24.999Z,7.40
2019-01-15T20:26:04.889Z,7.40
2019-01-15T20:28:23.584Z,7.40
2019-01-15T20:30:43.672Z,7.40
2019-01-15T20:32:54.894Z,7.40
2019-01-15T20:35:09.158Z,7.30
2019-01-15T20:37:29.330Z,7.30
2019-01-15T20:40:30.353Z,7.40
2019-01-15T20:42:48.701Z,7.40
2019-01-15T20:45:14.417Z,7.40
2019-01-15T20:47:36.188Z,7.40
2019-01-15T20:49:56.626Z,7.40
2019-01-15T20:52:10.073Z,7.40
2019-01-15T20:54:31.507Z,7.30
2019-01-15T20:57:07.453Z,7.40
2019-01-15T20:59:18.610Z,7.40
2019-01-15T21:01:43.173Z,7.40
2019-01-15T21:04:10.535Z,7.40
2019-01-15T21:06:25.958Z,7.40
2019-01-15T21:08:47.048Z,7.40
2019-01-15T21:18:38.343Z,7.40
2019-01-15T21:21:01.538Z,7.30
2019-01-15T21:23:31.990Z,7.40
2019-01-15T21:25:59.770Z,7.40
2019-01-15T21:28:36.532Z,7.40
2019-01-15T21:30:56.439Z,7.40
2019-01-15T21:33:13.737Z,7.40
2019-01-15T21:35:38.064Z,7.30
2019-01-15T21:37:50.482Z,7.30
2019-01-15T21:40:12.323Z,7.40
2019-01-15T21:42:37.907Z,7.40
2019-01-15T21:44:57.767Z,7.40
2019-01-15T21:47:31.201Z,7.40
2019-01-15T21:49:55.697Z,7.40
2019-01-15T21:52:15.614Z,7.40
2019-01-15T21:54:35.747Z,7.40
2019-01-15T21:56:55.803Z,7.40
2019-01-15T21:59:23.145Z,7.40
2019-01-15T22:01:59.412Z,7.40
2019-01-15T22:04:19.455Z,7.50
2019-01-15T22:06:45.711Z,7.50
2019-01-15T22:08:59.571Z,7.50
2019-01-15T22:11:33.109Z,7.50
2019-01-15T22:14:06.695Z,7.50
2019-01-15T22:16:28.223Z,7.50
2019-01-15T22:18:42.013Z,7.50
2019-01-15T22:20:55.536Z,7.50
2019-01-15T22:23:10.452Z,7.50
2019-01-15T22:25:42.977Z,7.50
2019-01-15T22:28:05.928Z,7.50
2019-01-15T22:30:27.531Z,7.50
2019-01-15T22:32:47.526Z,7.50
2019-01-15T22:35:09.934Z,7.50
2019-01-15T22:37:34.360Z,7.50
2019-01-15T22:39:54.659Z,7.60
2019-01-15T22:42:20.675Z,7.50
2019-01-15T22:44:45.208Z,7.50
2019-01-15T22:47:05.403Z,7.50
2019-01-15T22:49:25.344Z,7.60
2019-01-15T22:51:49.634Z,7.60
2019-01-15T22:54:04.455Z,7.60
2019-01-15T22:56:12.757Z,7.50
2019-01-15T22:58:34.445Z,7.50
2019-01-15T23:00:59.472Z,7.50
2019-01-15T23:03:29.183Z,7.50
2019-01-15T23:05:56.569Z,7.50
2019-01-15T23:08:17.912Z,7.50
2019-01-15T23:10:37.952Z,7.50
2019-01-15T23:12:49.480Z,7.50
2019-01-15T23:14:56.844Z,7.50
2019-01-15T23:17:11.319Z,7.50
2019-01-15T23:19:31.228Z,7.50
2019-01-15T23:21:51.129Z,7.50
2019-01-15T23:24:02.914Z,7.50
2019-01-15T23:26:33.271Z,7.50
2019-01-15T23:28:47.853Z,7.50
2019-01-15T23:31:04.391Z,7.50
2019-01-15T23:33:33.787Z,7.50
2019-01-15T23:36:01.733Z,7.50
2019-01-15T23:38:26.244Z,7.50
2019-01-15T23:40:53.827Z,7.50
2019-01-15T23:43:24.083Z,7.50
2019-01-15T23:45:42.212Z,7.50
2019-01-15T23:47:56.219Z,7.50
2019-01-15T23:50:08.503Z,7.50
2019-01-15T23:52:28.976Z,7.50
2019-01-15T23:54:47.642Z,7.40
2019-01-15T23:57:11.889Z,7.40
2019-01-15T23:59:32.087Z,7.40
